createdAt,value
2022-12-29T00:01:19.169Z,22.17
2022-12-29T00:03:49.658Z,24.85
2022-12-29T00:06:18.010Z,24.07
2022-12-29T00:08:46.470Z,18.47
2022-12-29T00:11:17.482Z,20.80
2022-12-29T00:14:03.453Z,19.95
2022-12-29T00:16:33.368Z,24.45
2022-12-29T00:19:04.306Z,18.65
2022-12-29T00:21:50.401Z,25.67
2022-12-29T00:24:38.727Z,21.67
2022-12-29T00:27:31.960Z,21.77
2022-12-29T00:30:18.137Z,19.80
2022-12-29T00:33:03.671Z,19.60
2022-12-29T00:35:37.272Z,15.52
2022-12-29T00:38:25.697Z,19.50
2022-12-29T00:41:11.173Z,25.38
2022-12-29T00:43:57.333Z,20.85
2022-12-29T00:46:25.925Z,29.67
2022-12-29T00:49:11.960Z,19.85
2022-12-29T00:51:41.848Z,25.38
2022-12-29T00:54:10.492Z,23.50
2022-12-29T00:56:39.154Z,23.70
2022-12-29T00:59:08.706Z,18.15
2022-12-29T01:01:38.071Z,20.23
2022-12-29T01:04:06.738Z,21.30
2022-12-29T01:06:36.629Z,29.92
2022-12-29T01:09:23.946Z,19.25
2022-12-29T01:11:53.218Z,19.30
2022-12-29T01:14:22.416Z,23.58
2022-12-29T01:16:51.097Z,19.20
2022-12-29T01:19:20.317Z,19.20
2022-12-29T01:21:49.301Z,18.42
2022-12-29T01:24:20.185Z,18.45
2022-12-29T01:26:49.634Z,16.48
2022-12-29T01:29:18.742Z,14.68
2022-12-29T01:31:50.903Z,15.70
2022-12-29T01:34:19.505Z,16.15
2022-12-29T01:36:47.813Z,21.25
2022-12-29T01:39:16.849Z,16.27
2022-12-29T01:41:47.123Z,15.95
2022-12-29T01:45:00.125Z,15.05
2022-12-29T01:47:33.055Z,16.15
2022-12-29T01:50:05.646Z,12.77
2022-12-29T01:52:36.207Z,18.45
2022-12-29T01:55:05.111Z,20.85
2022-12-29T01:57:38.730Z,15.77
2022-12-29T02:00:09.535Z,13.95
2022-12-29T02:02:45.944Z,17.77
2022-12-29T02:05:18.629Z,16.85
2022-12-29T02:07:47.341Z,23.38
2022-12-29T02:10:15.942Z,18.30
2022-12-29T02:12:45.716Z,17.15
2022-12-29T02:15:14.091Z,15.15
2022-12-29T02:17:55.926Z,16.67
2022-12-29T02:21:05.884Z,18.83
2022-12-29T02:24:00.670Z,17.15
2022-12-29T02:26:50.310Z,12.70
2022-12-29T02:29:36.617Z,19.65
2022-12-29T02:32:08.509Z,19.90
2022-12-29T02:34:44.691Z,18.83
2022-12-29T02:37:18.324Z,16.23
2022-12-29T02:39:53.019Z,14.55
2022-12-29T02:42:26.005Z,18.13
2022-12-29T02:44:59.109Z,16.52
2022-12-29T02:47:33.794Z,17.60
2022-12-29T02:50:06.322Z,16.05
2022-12-29T02:52:39.241Z,17.17
2022-12-29T02:55:08.055Z,20.02
2022-12-29T02:57:37.308Z,13.02
2022-12-29T03:00:09.687Z,20.52
2022-12-29T03:03:07.645Z,20.02
2022-12-29T03:05:55.608Z,19.65
2022-12-29T03:08:31.030Z,15.82
2022-12-29T03:11:03.507Z,15.07
2022-12-29T03:13:55.909Z,18.40
2022-12-29T03:16:27.819Z,20.02
2022-12-29T03:19:02.243Z,18.25
2022-12-29T03:21:54.047Z,14.55
2022-12-29T03:24:27.871Z,17.98
2022-12-29T03:27:01.270Z,20.58
2022-12-29T03:29:36.109Z,19.42
2022-12-29T03:32:06.046Z,17.15
2022-12-29T03:34:35.686Z,19.23
2022-12-29T03:37:08.690Z,18.05
2022-12-29T03:39:37.553Z,19.60
2022-12-29T03:42:08.517Z,15.60
2022-12-29T03:44:40.232Z,20.95
2022-12-29T03:47:10.313Z,22.00
2022-12-29T03:49:38.784Z,14.13
2022-12-29T03:52:09.412Z,17.58
2022-12-29T03:54:43.734Z,15.13
2022-12-29T03:57:12.783Z,16.08
2022-12-29T03:59:52.171Z,17.80
2022-12-29T04:02:20.809Z,19.20
2022-12-29T04:04:49.302Z,19.05
2022-12-29T04:07:19.073Z,15.40
2022-12-29T04:09:47.385Z,17.30
2022-12-29T04:12:21.416Z,15.02
2022-12-29T04:14:49.771Z,16.85
2022-12-29T04:17:19.122Z,19.35
2022-12-29T04:19:50.856Z,17.80
2022-12-29T04:22:21.051Z,19.05
2022-12-29T04:24:49.380Z,17.85
2022-12-29T04:27:17.687Z,16.65
2022-12-29T04:30:04.486Z,18.52
2022-12-29T04:32:45.039Z,13.20
2022-12-29T04:35:13.400Z,15.20
2022-12-29T04:37:43.105Z,12.83
2022-12-29T04:40:13.875Z,16.63
2022-12-29T04:42:42.170Z,19.23
2022-12-29T04:45:11.342Z,15.90
2022-12-29T04:47:53.032Z,16.50
2022-12-29T04:50:50.177Z,16.13
2022-12-29T04:53:26.397Z,26.33
2022-12-29T04:55:56.143Z,21.77
2022-12-29T04:58:24.614Z,27.65
2022-12-29T05:00:54.227Z,21.33
2022-12-29T05:03:26.987Z,14.60
2022-12-29T05:05:57.190Z,12.70
2022-12-29T05:08:28.597Z,20.70
2022-12-29T05:10:59.722Z,17.75
2022-12-29T05:13:28.715Z,15.93
2022-12-29T05:15:57.141Z,14.65
2022-12-29T05:18:26.342Z,15.80
2022-12-29T05:20:54.604Z,14.95
2022-12-29T05:23:26.329Z,14.13
2022-12-29T05:26:01.812Z,27.17
2022-12-29T05:28:48.428Z,27.33
2022-12-29T05:31:20.639Z,20.85
2022-12-29T05:33:50.130Z,30.08
2022-12-29T05:36:19.141Z,20.45
2022-12-29T05:38:52.928Z,20.95
2022-12-29T05:41:21.570Z,18.20
2022-12-29T05:44:02.692Z,16.52
2022-12-29T05:46:49.502Z,16.02
2022-12-29T05:49:22.544Z,16.95
2022-12-29T05:52:26.033Z,20.48
2022-12-29T05:54:56.200Z,20.00
2022-12-29T05:57:26.068Z,19.15
2022-12-29T06:00:15.722Z,21.10
2022-12-29T06:02:48.115Z,20.52
2022-12-29T06:05:18.453Z,13.48
2022-12-29T06:07:46.973Z,19.52
2022-12-29T06:10:19.386Z,18.70
2022-12-29T06:12:53.196Z,26.77
2022-12-29T06:15:21.699Z,21.42
2022-12-29T06:17:52.100Z,20.73
2022-12-29T06:20:20.524Z,19.02
2022-12-29T06:22:50.411Z,27.60
2022-12-29T06:25:21.694Z,19.90
2022-12-29T06:27:50.140Z,15.20
2022-12-29T06:30:19.076Z,15.68
2022-12-29T06:32:47.950Z,15.75
2022-12-29T06:35:16.546Z,17.90
2022-12-29T06:37:51.720Z,18.55
2022-12-29T06:40:22.702Z,20.65
2022-12-29T06:43:20.135Z,19.20
2022-12-29T06:46:09.872Z,19.13
2022-12-29T06:48:38.263Z,19.88
2022-12-29T06:51:06.949Z,20.02
2022-12-29T06:53:35.292Z,20.77
2022-12-29T06:56:05.482Z,17.10
2022-12-29T06:58:34.030Z,20.13
2022-12-29T07:01:03.553Z,22.52
2022-12-29T07:03:32.167Z,18.63
2022-12-29T07:06:01.017Z,16.17
2022-12-29T07:08:29.654Z,21.73
2022-12-29T07:10:57.984Z,18.40
2022-12-29T07:13:27.884Z,18.83
2022-12-29T07:15:56.373Z,20.05
2022-12-29T07:18:25.129Z,19.10
2022-12-29T07:20:53.447Z,23.30
2022-12-29T07:23:21.816Z,19.38
2022-12-29T07:25:50.141Z,24.33
2022-12-29T07:28:18.426Z,27.80
2022-12-29T07:30:49.811Z,22.88
2022-12-29T07:33:19.956Z,26.00
2022-12-29T07:35:49.099Z,28.02
2022-12-29T07:38:17.754Z,30.73
2022-12-29T07:40:46.132Z,28.25
2022-12-29T07:43:14.575Z,28.25
2022-12-29T07:45:53.879Z,27.50
2022-12-29T07:48:25.447Z,27.38
2022-12-29T07:50:54.431Z,28.00
2022-12-29T07:53:23.021Z,31.88
2022-12-29T07:55:51.322Z,26.35
2022-12-29T07:58:20.048Z,25.20
2022-12-29T08:00:48.682Z,24.50
2022-12-29T08:03:19.039Z,31.13
2022-12-29T08:05:47.447Z,26.33
2022-12-29T08:08:15.929Z,32.80
2022-12-29T08:10:45.608Z,30.70
2022-12-29T08:13:14.495Z,24.60
2022-12-29T08:15:42.842Z,29.20
2022-12-29T08:18:11.292Z,26.07
2022-12-29T08:20:41.037Z,25.60
2022-12-29T08:23:09.387Z,30.53
2022-12-29T08:25:37.779Z,33.13
2022-12-29T08:28:06.231Z,29.70
2022-12-29T08:30:35.348Z,26.17
2022-12-29T08:33:03.694Z,20.83
2022-12-29T08:35:32.175Z,15.90
2022-12-29T08:38:01.866Z,15.60
2022-12-29T08:40:30.324Z,22.13
2022-12-29T08:42:58.703Z,18.27
2022-12-29T08:45:27.543Z,18.40
2022-12-29T08:47:57.088Z,21.63
2022-12-29T08:50:25.732Z,17.40
2022-12-29T08:52:55.407Z,15.57
2022-12-29T08:55:25.804Z,19.60
2022-12-29T08:57:55.259Z,15.57
2022-12-29T09:00:23.942Z,16.43
2022-12-29T09:02:53.328Z,15.50
2022-12-29T09:05:21.755Z,16.60
2022-12-29T09:07:53.386Z,17.47
2022-12-29T09:10:21.759Z,16.53
2022-12-29T09:12:52.795Z,14.20
2022-12-29T09:15:21.332Z,14.97
2022-12-29T09:17:49.656Z,19.00
2022-12-29T09:20:19.752Z,20.50
2022-12-29T09:22:49.483Z,17.40
2022-12-29T09:25:18.448Z,18.73
2022-12-29T09:27:46.800Z,18.00
2022-12-29T09:30:17.625Z,18.70
2022-12-29T09:32:47.780Z,19.20
2022-12-29T09:35:19.181Z,19.60
2022-12-29T09:37:47.676Z,16.37
2022-12-29T09:40:30.286Z,22.93
2022-12-29T09:43:26.947Z,27.63
2022-12-29T09:46:02.412Z,21.37
2022-12-29T09:48:33.668Z,19.37
2022-12-29T09:51:06.259Z,23.80
2022-12-29T09:53:39.482Z,19.20
2022-12-29T09:56:15.564Z,24.90
2022-12-29T09:58:49.912Z,21.10
2022-12-29T10:01:28.940Z,17.17
2022-12-29T10:03:58.983Z,24.07
2022-12-29T10:06:32.938Z,22.90
2022-12-29T10:09:05.364Z,17.83
2022-12-29T10:11:52.496Z,21.23
2022-12-29T10:14:33.476Z,20.07
2022-12-29T10:17:08.270Z,15.37
2022-12-29T10:19:55.283Z,18.90
2022-12-29T10:22:32.016Z,16.00
2022-12-29T10:25:03.759Z,19.43
2022-12-29T10:27:33.899Z,21.87
2022-12-29T10:30:04.827Z,20.07
2022-12-29T10:32:38.230Z,19.23
2022-12-29T10:35:13.303Z,18.20
2022-12-29T10:37:46.221Z,25.23
2022-12-29T10:40:21.652Z,19.20
2022-12-29T10:42:54.639Z,17.50
2022-12-29T10:45:24.445Z,17.50
2022-12-29T10:47:58.635Z,20.27
2022-12-29T10:50:28.054Z,20.10
2022-12-29T10:52:57.708Z,19.07
2022-12-29T10:55:29.874Z,17.87
2022-12-29T10:58:00.200Z,18.33
2022-12-29T11:00:30.312Z,18.30
2022-12-29T11:03:39.148Z,20.30
2022-12-29T11:06:11.473Z,32.53
2022-12-29T11:08:42.202Z,14.57
2022-12-29T11:11:11.927Z,19.57
2022-12-29T11:13:50.122Z,17.90
2022-12-29T11:16:29.747Z,18.13
2022-12-29T11:19:00.346Z,16.40
2022-12-29T11:21:34.025Z,16.60
2022-12-29T11:24:04.292Z,18.83
2022-12-29T11:26:35.010Z,20.97
2022-12-29T11:29:19.279Z,15.33
2022-12-29T11:31:49.306Z,18.80
2022-12-29T11:34:24.602Z,15.23
2022-12-29T11:36:55.946Z,20.33
2022-12-29T11:39:30.682Z,19.07
2022-12-29T11:41:59.580Z,14.57
2022-12-29T11:44:29.970Z,13.50
2022-12-29T11:46:58.523Z,16.30
2022-12-29T11:49:28.700Z,18.80
2022-12-29T11:51:58.572Z,17.07
2022-12-29T11:54:31.341Z,16.20
2022-12-29T11:57:01.469Z,15.47
2022-12-29T11:59:45.567Z,11.87
2022-12-29T12:02:47.182Z,13.90
2022-12-29T12:05:23.051Z,12.73
2022-12-29T12:07:55.995Z,12.03
2022-12-29T12:10:29.555Z,13.47
2022-12-29T12:13:06.279Z,11.30
2022-12-29T12:15:45.361Z,17.40
2022-12-29T12:18:21.572Z,9.63
2022-12-29T12:20:54.775Z,9.27
2022-12-29T12:23:39.272Z,11.40
2022-12-29T12:26:13.815Z,10.17
2022-12-29T12:28:48.482Z,10.73
2022-12-29T12:31:24.150Z,9.40
2022-12-29T12:33:57.334Z,10.20
2022-12-29T12:36:46.006Z,7.00
2022-12-29T12:39:20.519Z,10.13
2022-12-29T12:41:54.663Z,6.23
2022-12-29T12:44:30.250Z,7.60
2022-12-29T12:47:24.588Z,5.87
2022-12-29T12:50:17.043Z,7.40
2022-12-29T12:53:00.399Z,5.67
2022-12-29T12:55:41.833Z,6.30
2022-12-29T12:58:16.589Z,5.73
2022-12-29T13:00:53.607Z,4.97
2022-12-29T13:03:29.805Z,10.23
2022-12-29T13:06:09.761Z,6.87
2022-12-29T13:09:13.957Z,5.03
2022-12-29T13:11:53.468Z,4.77
2022-12-29T13:14:31.133Z,7.67
2022-12-29T13:17:03.682Z,4.93
2022-12-29T13:19:35.578Z,9.53
2022-12-29T13:22:09.307Z,5.47
2022-12-29T13:24:49.614Z,7.07
2022-12-29T13:27:27.831Z,6.13
2022-12-29T13:30:04.689Z,7.07
2022-12-29T13:32:52.064Z,4.20
2022-12-29T13:35:38.256Z,8.33
2022-12-29T13:38:12.845Z,8.40
2022-12-29T13:40:43.302Z,6.93
2022-12-29T13:43:44.300Z,8.77
2022-12-29T13:47:10.567Z,10.00
2022-12-29T13:50:25.728Z,6.17
2022-12-29T13:53:11.392Z,7.90
2022-12-29T13:56:01.620Z,9.67
2022-12-29T13:58:38.999Z,10.00
2022-12-29T14:01:16.977Z,6.50
2022-12-29T14:03:57.546Z,7.60
2022-12-29T14:06:42.451Z,7.67
2022-12-29T14:09:40.353Z,8.50
2022-12-29T14:16:40.566Z,7.17
2022-12-29T14:19:44.743Z,8.90
2022-12-29T14:23:00.821Z,12.50
2022-12-29T14:26:07.885Z,8.33
2022-12-29T14:28:39.626Z,8.60
2022-12-29T14:31:36.099Z,8.10
2022-12-29T14:34:33.085Z,8.80
2022-12-29T14:37:02.908Z,10.23
2022-12-29T14:39:35.113Z,6.67
2022-12-29T14:42:05.050Z,8.93
2022-12-29T14:44:33.894Z,7.40
2022-12-29T14:47:07.878Z,11.27
2022-12-29T14:49:44.361Z,9.10
2022-12-29T14:52:19.569Z,10.07
2022-12-29T14:54:56.108Z,19.50
2022-12-29T14:57:29.437Z,11.80
2022-12-29T15:00:01.751Z,13.30
2022-12-29T15:02:38.326Z,10.90
2022-12-29T15:05:08.072Z,11.93
2022-12-29T15:07:36.799Z,13.63
2022-12-29T15:10:08.729Z,14.33
2022-12-29T15:12:43.825Z,13.73
2022-12-29T15:15:24.264Z,12.40
2022-12-29T15:17:54.461Z,12.73
2022-12-29T15:20:28.106Z,9.47
2022-12-29T15:23:03.535Z,12.50
2022-12-29T15:25:33.561Z,9.53
2022-12-29T15:28:03.600Z,11.53
2022-12-29T15:30:32.279Z,11.00
2022-12-29T15:33:08.020Z,20.10
2022-12-29T15:35:37.907Z,7.17
2022-12-29T15:38:16.979Z,5.90
2022-12-29T15:40:46.280Z,7.67
2022-12-29T15:43:41.956Z,7.60
2022-12-29T15:46:13.939Z,12.43
2022-12-29T15:48:44.894Z,14.97
2022-12-29T15:51:22.021Z,9.43
2022-12-29T15:53:51.848Z,9.60
2022-12-29T15:56:20.823Z,11.30
2022-12-29T15:58:52.222Z,9.33
2022-12-29T16:01:22.217Z,13.63
2022-12-29T16:03:53.107Z,9.40
2022-12-29T16:06:29.885Z,12.00
2022-12-29T16:08:59.473Z,9.70
2022-12-29T16:11:33.125Z,10.87
2022-12-29T16:14:01.823Z,11.67
2022-12-29T16:16:32.568Z,15.10
2022-12-29T16:19:04.683Z,14.50
2022-12-29T16:21:35.974Z,12.10
2022-12-29T16:24:07.975Z,15.40
2022-12-29T16:26:36.392Z,16.57
2022-12-29T16:29:08.766Z,15.27
2022-12-29T16:31:38.640Z,20.40
2022-12-29T16:34:24.088Z,20.53
2022-12-29T16:36:58.401Z,15.13
2022-12-29T16:39:30.154Z,19.30
2022-12-29T16:42:00.861Z,20.37
2022-12-29T16:44:30.784Z,17.43
2022-12-29T16:47:20.866Z,12.00
2022-12-29T16:49:54.165Z,15.17
2022-12-29T16:52:26.989Z,14.53
2022-12-29T16:54:57.485Z,14.43
2022-12-29T16:57:31.499Z,13.33
2022-12-29T17:00:02.102Z,16.80
2022-12-29T17:02:33.111Z,17.30
2022-12-29T17:05:05.280Z,12.13
2022-12-29T17:07:33.751Z,14.67
2022-12-29T17:10:02.228Z,8.67
2022-12-29T17:12:32.159Z,11.77
2022-12-29T17:15:02.056Z,5.30
2022-12-29T17:17:35.824Z,8.23
2022-12-29T17:20:08.482Z,10.43
2022-12-29T17:22:37.392Z,12.30
2022-12-29T17:25:06.583Z,12.10
2022-12-29T17:27:38.653Z,9.83
2022-12-29T17:30:12.350Z,10.30
2022-12-29T17:32:41.939Z,11.20
2022-12-29T17:35:17.106Z,10.17
2022-12-29T17:37:45.893Z,10.90
2022-12-29T17:40:16.502Z,12.03
2022-12-29T17:42:47.316Z,11.87
2022-12-29T17:45:18.116Z,17.50
2022-12-29T17:47:46.501Z,13.20
2022-12-29T17:50:17.919Z,12.77
2022-12-29T17:52:49.251Z,13.30
2022-12-29T17:55:19.734Z,14.13
2022-12-29T17:57:48.407Z,14.43
2022-12-29T18:00:18.826Z,12.50
2022-12-29T18:02:50.225Z,16.97
2022-12-29T18:05:22.563Z,17.93
2022-12-29T18:07:53.572Z,12.50
2022-12-29T18:10:22.993Z,17.37
2022-12-29T18:12:53.069Z,13.17
2022-12-29T18:15:29.685Z,16.90
2022-12-29T18:18:04.096Z,13.27
2022-12-29T18:20:36.740Z,16.00
2022-12-29T18:23:08.623Z,19.00
2022-12-29T18:25:41.813Z,18.83
2022-12-29T18:28:10.452Z,18.90
2022-12-29T18:30:39.495Z,21.50
2022-12-29T18:33:08.493Z,20.67
2022-12-29T18:35:43.642Z,15.80
2022-12-29T18:38:13.703Z,17.27
2022-12-29T18:40:43.224Z,18.80
2022-12-29T18:43:12.684Z,19.97
2022-12-29T18:45:41.306Z,17.30
2022-12-29T18:48:16.641Z,13.83
2022-12-29T18:50:49.231Z,14.53
2022-12-29T18:53:18.692Z,16.20
2022-12-29T18:55:47.727Z,15.77
2022-12-29T18:58:16.681Z,10.50
2022-12-29T19:00:45.703Z,10.73
2022-12-29T19:03:15.846Z,10.70
2022-12-29T19:05:48.924Z,7.83
2022-12-29T19:08:17.749Z,8.23
2022-12-29T19:10:46.877Z,11.50
2022-12-29T19:13:18.440Z,9.10
2022-12-29T19:15:47.785Z,3.60
2022-12-29T19:21:11.090Z,7.93
2022-12-29T19:23:39.900Z,11.33
2022-12-29T19:26:11.000Z,11.67
2022-12-29T19:28:40.865Z,16.67
2022-12-29T19:31:10.748Z,10.80
2022-12-29T19:33:40.299Z,12.00
2022-12-29T19:36:17.070Z,11.83
2022-12-29T19:38:46.316Z,10.67
2022-12-29T19:41:15.545Z,9.60
2022-12-29T19:43:45.175Z,11.80
2022-12-29T19:46:17.606Z,13.27
2022-12-29T19:48:46.535Z,12.50
2022-12-29T19:51:18.485Z,14.13
2022-12-29T19:53:47.778Z,6.00
2022-12-29T19:56:16.760Z,12.50
2022-12-29T19:58:47.784Z,8.60
2022-12-29T20:01:18.425Z,8.57
2022-12-29T20:03:48.945Z,5.33
2022-12-29T20:06:19.262Z,10.30
2022-12-29T20:08:48.444Z,11.53
2022-12-29T20:11:19.419Z,19.70
2022-12-29T20:13:48.421Z,24.63
2022-12-29T20:16:22.537Z,18.37
2022-12-29T20:18:51.884Z,28.90
2022-12-29T20:21:23.432Z,25.97
2022-12-29T20:23:52.962Z,29.20
2022-12-29T20:26:23.729Z,24.93
2022-12-29T20:28:52.805Z,24.83
2022-12-29T20:31:25.755Z,27.87
2022-12-29T20:33:54.459Z,28.47
2022-12-29T20:36:26.405Z,35.87
2022-12-29T20:38:55.547Z,31.43
2022-12-29T20:41:24.161Z,30.17
2022-12-29T20:43:53.293Z,23.57
2022-12-29T20:46:26.409Z,28.20
2022-12-29T20:48:59.910Z,19.70
2022-12-29T20:51:59.295Z,25.23
2022-12-29T20:54:20.010Z,27.67
2022-12-29T20:56:48.968Z,24.40
2022-12-29T20:59:27.454Z,22.70
2022-12-29T21:01:57.532Z,19.67
2022-12-29T21:04:26.540Z,21.10
2022-12-29T21:06:56.614Z,23.70
2022-12-29T21:09:25.107Z,20.70
2022-12-29T21:11:53.825Z,16.53
2022-12-29T21:14:22.847Z,17.80
2022-12-29T21:16:51.402Z,8.20
2022-12-29T21:19:19.737Z,7.57
2022-12-29T21:21:48.028Z,9.00
2022-12-29T21:24:19.927Z,4.50
2022-12-29T21:26:48.750Z,8.73
2022-12-29T21:29:18.123Z,10.30
2022-12-29T21:31:49.108Z,9.40
2022-12-29T21:34:17.842Z,8.93
2022-12-29T21:36:46.301Z,8.30
2022-12-29T21:39:16.483Z,10.10
2022-12-29T21:41:47.671Z,6.03
2022-12-29T21:44:33.745Z,1.67
2022-12-29T21:47:02.365Z,4.30
2022-12-29T21:49:30.710Z,5.50
2022-12-29T21:51:59.288Z,4.00
2022-12-29T21:54:46.241Z,7.10
2022-12-29T21:57:38.116Z,5.93
2022-12-29T22:00:26.143Z,8.67
2022-12-29T22:03:20.063Z,4.20
2022-12-29T22:06:08.376Z,4.10
2022-12-29T22:08:54.010Z,6.90
2022-12-29T22:11:40.006Z,4.13
2022-12-29T22:14:09.811Z,3.87
2022-12-29T22:16:38.408Z,11.40
2022-12-29T22:19:07.983Z,9.83
2022-12-29T22:21:36.427Z,7.40
2022-12-29T22:24:04.832Z,7.53
2022-12-29T22:26:33.241Z,6.80
2022-12-29T22:29:04.020Z,6.43
2022-12-29T22:31:33.999Z,9.07
2022-12-29T22:34:03.922Z,7.33
2022-12-29T22:36:33.548Z,18.60
2022-12-29T22:39:02.130Z,21.97
2022-12-29T22:41:30.433Z,27.33
2022-12-29T22:43:58.722Z,36.33
2022-12-29T22:46:27.144Z,52.27
2022-12-29T22:48:57.849Z,58.03
2022-12-29T22:51:26.416Z,43.17
2022-12-29T22:53:54.934Z,33.30
2022-12-29T22:56:23.263Z,31.97
2022-12-29T22:58:51.634Z,25.80
2022-12-29T23:01:22.714Z,22.73
2022-12-29T23:03:51.416Z,29.87
2022-12-29T23:06:21.347Z,28.00
2022-12-29T23:08:49.751Z,25.43
2022-12-29T23:11:18.235Z,25.03
2022-12-29T23:13:46.999Z,26.95
2022-12-29T23:16:16.481Z,27.70
2022-12-29T23:18:45.168Z,26.90
2022-12-29T23:21:13.737Z,27.00
2022-12-29T23:23:56.248Z,20.73
2022-12-29T23:26:28.424Z,20.63
2022-12-29T23:29:00.326Z,22.67
2022-12-29T23:31:29.422Z,19.03
2022-12-29T23:33:58.086Z,18.53
2022-12-29T23:36:26.447Z,21.33
2022-12-29T23:38:57.063Z,24.03
2022-12-29T23:41:25.699Z,21.30
2022-12-29T23:43:54.039Z,23.60
2022-12-29T23:46:23.987Z,17.95
2022-12-29T23:48:52.541Z,19.60
2022-12-29T23:51:20.999Z,20.30
2022-12-29T23:53:49.628Z,14.50
2022-12-29T23:56:21.682Z,15.13
2022-12-29T23:58:50.547Z,17.03
